createdAt,value
2022-12-20T00:00:18.696Z,100369.65
2022-12-20T00:05:42.377Z,100363.32
2022-12-20T00:10:45.936Z,100361.46
2022-12-20T00:15:48.422Z,100356.86
2022-12-20T00:20:58.659Z,100349.17
2022-12-20T00:26:05.942Z,100337.86
2022-12-20T00:31:10.039Z,100328.77
2022-12-20T00:36:12.708Z,100321.92
2022-12-20T00:41:20.591Z,100318.85
2022-12-20T00:46:24.616Z,100318.53
2022-12-20T00:51:29.188Z,100304.98
2022-12-20T00:56:31.653Z,100296.91
2022-12-20T01:01:35.556Z,100301.05
2022-12-20T01:06:38.178Z,100302.09
2022-12-20T01:11:40.696Z,100297.98
2022-12-20T01:16:47.275Z,100301.25
2022-12-20T01:21:49.812Z,100303.33
2022-12-20T01:26:52.344Z,100299.55
2022-12-20T01:31:54.953Z,100301.44
2022-12-20T01:36:57.491Z,100300.58
2022-12-20T01:42:00.198Z,100291.16
2022-12-20T01:47:03.612Z,100279.47
2022-12-20T01:52:13.575Z,100271.92
2022-12-20T01:57:24.781Z,100261.96
2022-12-20T02:02:27.856Z,100248.40
2022-12-20T02:07:34.194Z,100235.02
2022-12-20T02:12:41.374Z,100236.03
2022-12-20T02:17:51.981Z,100232.08
2022-12-20T02:23:00.364Z,100235.34
2022-12-20T02:28:06.772Z,100245.48
2022-12-20T02:33:11.475Z,100253.39
2022-12-20T02:38:19.837Z,100229.51
2022-12-20T02:43:27.151Z,100216.27
2022-12-20T02:48:33.962Z,100216.44
2022-12-20T02:53:38.156Z,100230.18
2022-12-20T02:58:49.368Z,100225.23
2022-12-20T03:03:52.855Z,100217.31
2022-12-20T03:08:55.341Z,100199.80
2022-12-20T03:13:57.911Z,100195.66
2022-12-20T03:19:00.373Z,100184.50
2022-12-20T03:24:02.845Z,100185.70
2022-12-20T03:29:05.550Z,100194.11
2022-12-20T03:34:08.019Z,100195.83
2022-12-20T03:39:10.519Z,100211.48
2022-12-20T03:44:13.092Z,100215.78
2022-12-20T03:49:15.759Z,100209.58
2022-12-20T03:54:18.744Z,100212.84
2022-12-20T03:59:21.259Z,100204.94
2022-12-20T04:04:23.831Z,100211.98
2022-12-20T04:09:26.540Z,100204.77
2022-12-20T04:14:29.047Z,100184.81
2022-12-20T04:19:31.756Z,100197.20
2022-12-20T04:24:34.275Z,100204.08
2022-12-20T04:29:36.840Z,100196.85
2022-12-20T04:34:39.328Z,100209.76
2022-12-20T04:39:41.820Z,100205.10
2022-12-20T04:44:44.404Z,100198.57
2022-12-20T04:49:46.908Z,100191.35
2022-12-20T04:54:49.458Z,100198.91
2022-12-20T04:59:52.008Z,100194.63
2022-12-20T05:04:54.501Z,100181.20
2022-12-20T05:09:56.972Z,100174.66
2022-12-20T05:14:59.471Z,100163.66
2022-12-20T05:20:02.316Z,100165.21
2022-12-20T05:25:08.104Z,100183.45
2022-12-20T05:30:11.231Z,100180.01
2022-12-20T05:35:14.724Z,100189.80
2022-12-20T05:40:18.339Z,100182.23
2022-12-20T05:45:21.731Z,100171.23
2022-12-20T05:50:24.701Z,100172.09
2022-12-20T05:55:27.192Z,100179.14
2022-12-20T06:00:29.704Z,100174.48
2022-12-20T06:05:32.231Z,100173.46
2022-12-20T06:10:34.944Z,100182.92
2022-12-20T06:15:38.180Z,100180.87
2022-12-20T06:20:40.693Z,100176.90
2022-12-20T06:25:43.901Z,100182.75
2022-12-20T06:30:52.573Z,100194.44
2022-12-20T06:35:55.058Z,100194.95
2022-12-20T06:41:35.367Z,100192.20
2022-12-20T06:46:37.931Z,100187.55
2022-12-20T06:51:40.619Z,100184.80
2022-12-20T06:56:43.183Z,100189.09
2022-12-20T07:01:45.936Z,100200.09
2022-12-20T07:06:48.559Z,100198.36
2022-12-20T07:11:52.010Z,100205.77
2022-12-20T07:16:54.966Z,100214.02
2022-12-20T07:21:57.578Z,100218.12
2022-12-20T07:27:00.806Z,100224.66
2022-12-20T07:32:03.611Z,100223.27
2022-12-20T07:37:06.166Z,100225.14
2022-12-20T07:42:09.290Z,100222.03
2022-12-20T07:47:12.004Z,100220.80
2022-12-20T07:52:17.012Z,100205.30
2022-12-20T07:57:24.212Z,100222.32
2022-12-20T08:02:33.324Z,100230.92
2022-12-20T08:07:38.316Z,100230.52
2022-12-20T08:12:42.655Z,100221.00
2022-12-20T08:17:45.239Z,100216.33
2022-12-20T08:22:47.809Z,100224.92
2022-12-20T08:27:50.569Z,100224.44
2022-12-20T08:32:53.029Z,100214.06
2022-12-20T08:37:56.401Z,100205.64
2022-12-20T08:43:00.487Z,100207.04
2022-12-20T08:48:04.903Z,100204.47
2022-12-20T08:53:07.416Z,100199.67
2022-12-20T08:58:09.906Z,100199.64
2022-12-20T09:03:14.291Z,100194.27
2022-12-20T09:08:16.845Z,100205.12
2022-12-20T09:13:19.553Z,100208.36
2022-12-20T09:18:22.049Z,100199.70
2022-12-20T09:23:24.929Z,100203.87
2022-12-20T09:28:27.588Z,100200.77
2022-12-20T09:33:34.434Z,100196.39
2022-12-20T09:38:37.068Z,100213.34
2022-12-20T09:43:41.626Z,100211.85
2022-12-20T09:48:45.633Z,100210.11
2022-12-20T09:53:52.369Z,100216.50
2022-12-20T09:58:58.781Z,100210.86
2022-12-20T10:04:12.624Z,100215.77
2022-12-20T10:09:32.024Z,100204.11
2022-12-20T10:15:15.989Z,100174.15
2022-12-20T10:20:27.319Z,100162.88
2022-12-20T10:25:36.693Z,100143.23
2022-12-20T10:30:42.313Z,100146.56
2022-12-20T10:35:45.925Z,100158.09
2022-12-20T10:46:34.050Z,100155.65
2022-12-20T10:51:36.729Z,100154.36
2022-12-20T10:56:39.375Z,100153.59
2022-12-20T11:01:47.166Z,100155.73
2022-12-20T11:06:51.756Z,100158.61
2022-12-20T11:11:57.684Z,100163.45
2022-12-20T11:17:07.746Z,100163.95
2022-12-20T11:22:14.279Z,100147.23
2022-12-20T11:27:27.329Z,100133.91
2022-12-20T11:32:52.496Z,100135.30
2022-12-20T11:38:02.638Z,100134.98
2022-12-20T11:43:25.288Z,100139.57
2022-12-20T11:48:38.966Z,100127.36
2022-12-20T11:53:48.186Z,100124.73
2022-12-20T11:59:00.219Z,100125.79
2022-12-20T12:04:04.447Z,100131.45
2022-12-20T12:09:12.121Z,100124.90
2022-12-20T12:14:27.165Z,100112.55
2022-12-20T12:19:31.078Z,100117.40
2022-12-20T12:24:39.140Z,100121.11
2022-12-20T12:29:41.844Z,100122.94
2022-12-20T12:34:48.597Z,100110.58
2022-12-20T12:39:56.106Z,100116.16
2022-12-20T12:45:03.920Z,100107.39
2022-12-20T12:50:21.103Z,100106.73
2022-12-20T12:55:29.558Z,100101.27
2022-12-20T13:00:55.338Z,100099.60
2022-12-20T13:05:58.021Z,100093.45
2022-12-20T13:11:01.774Z,100105.17
2022-12-20T13:16:09.706Z,100108.98
2022-12-20T13:21:17.832Z,100126.58
2022-12-20T13:26:49.728Z,100129.30
2022-12-20T13:31:54.583Z,100122.42
2022-12-20T13:36:59.576Z,100116.70
2022-12-20T13:42:16.131Z,100117.20
2022-12-20T13:47:19.597Z,100113.43
2022-12-20T13:52:28.550Z,100111.92
2022-12-20T13:57:41.238Z,100111.66
2022-12-20T14:02:44.996Z,100117.70
2022-12-20T14:07:55.019Z,100108.26
2022-12-20T14:12:58.179Z,100105.52
2022-12-20T14:18:05.912Z,100095.39
2022-12-20T14:23:16.660Z,100084.73
2022-12-20T14:28:30.363Z,100086.64
2022-12-20T14:33:32.948Z,100085.07
2022-12-20T14:38:35.658Z,100085.44
2022-12-20T14:43:38.303Z,100084.61
2022-12-20T14:48:41.056Z,100076.89
2022-12-20T14:53:45.588Z,100076.53
2022-12-20T14:59:13.629Z,100078.60
2022-12-20T15:04:36.689Z,100070.02
2022-12-20T15:09:39.907Z,100072.79
2022-12-20T15:14:42.797Z,100081.71
2022-12-20T15:19:45.460Z,100076.02
2022-12-20T15:24:48.102Z,100055.19
2022-12-20T15:29:50.737Z,100053.15
2022-12-20T15:34:53.517Z,100050.40
2022-12-20T15:39:56.166Z,100053.84
2022-12-20T15:44:58.918Z,100055.75
2022-12-20T15:50:01.581Z,100054.58
2022-12-20T15:55:04.504Z,100052.69
2022-12-20T16:00:07.997Z,100061.61
2022-12-20T16:05:13.887Z,100066.73
2022-12-20T16:10:17.219Z,100072.39
2022-12-20T16:15:22.008Z,100073.73
2022-12-20T16:20:24.964Z,100088.30
2022-12-20T16:25:32.980Z,100082.09
2022-12-20T16:30:35.867Z,100071.92
2022-12-20T16:35:38.544Z,100054.34
2022-12-20T16:40:41.323Z,100047.77
2022-12-20T16:45:43.964Z,100047.39
2022-12-20T16:50:46.750Z,100047.02
2022-12-20T16:55:49.586Z,100034.10
2022-12-20T17:00:52.286Z,100029.80
2022-12-20T17:05:57.151Z,100034.60
2022-12-20T17:10:59.754Z,100033.36
2022-12-20T17:16:02.528Z,100046.07
2022-12-20T17:21:34.371Z,100046.75
2022-12-20T17:26:37.501Z,100049.16
2022-12-20T17:31:43.583Z,100053.97
2022-12-20T17:36:47.713Z,100046.71
2022-12-20T17:41:51.897Z,100048.95
2022-12-20T17:46:56.191Z,100042.75
2022-12-20T17:51:58.795Z,100039.14
2022-12-20T17:57:01.446Z,100040.17
2022-12-20T18:02:18.580Z,100034.30
2022-12-20T18:07:21.374Z,100030.00
2022-12-20T18:12:24.239Z,100020.70
2022-12-20T18:17:27.040Z,100013.80
2022-12-20T18:22:32.097Z,100003.77
2022-12-20T18:27:39.941Z,100010.83
2022-12-20T18:32:42.638Z,100005.50
2022-12-20T18:37:45.256Z,100013.77
2022-12-20T18:42:47.876Z,100016.48
2022-12-20T18:47:50.475Z,100012.18
2022-12-20T18:52:57.869Z,100010.80
2022-12-20T18:58:03.880Z,100012.33
2022-12-20T19:03:06.679Z,100018.35
2022-12-20T19:08:09.431Z,100010.95
2022-12-20T19:13:12.172Z,99994.23
2022-12-20T19:18:15.932Z,99982.33
2022-12-20T19:23:20.637Z,99973.70
2022-12-20T19:28:23.897Z,99969.95
2022-12-20T19:33:26.733Z,99973.38
2022-12-20T19:38:29.358Z,99966.64
2022-12-20T19:43:32.009Z,99958.53
2022-12-20T19:48:35.478Z,99953.34
2022-12-20T19:53:40.723Z,99949.21
2022-12-20T19:58:44.355Z,99953.50
2022-12-20T20:03:47.182Z,99951.38
2022-12-20T20:08:50.017Z,99940.10
2022-12-20T20:13:53.003Z,99944.02
2022-12-20T20:18:55.733Z,99956.55
2022-12-20T20:23:58.451Z,99959.45
2022-12-20T20:29:02.107Z,99953.86
2022-12-20T20:34:04.813Z,99957.45
2022-12-20T20:39:07.770Z,99955.53
2022-12-20T20:44:12.111Z,99955.16
2022-12-20T20:49:14.829Z,99948.66
2022-12-20T20:54:17.479Z,99952.33
2022-12-20T20:59:22.624Z,99955.15
2022-12-20T21:04:25.227Z,99954.48
2022-12-20T21:09:28.656Z,99952.40
2022-12-20T21:15:02.281Z,99935.64
2022-12-20T21:19:54.227Z,99923.38
2022-12-20T21:24:57.619Z,99924.08
2022-12-20T21:30:00.282Z,99921.16
2022-12-20T21:35:03.075Z,99927.51
2022-12-20T21:40:07.473Z,99927.45
2022-12-20T21:45:11.871Z,99926.88
2022-12-20T21:50:14.599Z,99930.86
2022-12-20T21:55:17.219Z,99922.92
2022-12-20T22:00:21.065Z,99919.48
2022-12-20T22:05:23.661Z,99914.36
2022-12-20T22:10:26.301Z,99908.78
2022-12-20T22:15:28.909Z,99908.67
2022-12-20T22:20:31.917Z,99904.20
2022-12-20T22:25:38.371Z,99907.82
2022-12-20T22:30:42.293Z,99895.29
2022-12-20T22:35:44.969Z,99882.21
2022-12-20T22:40:47.558Z,99886.84
2022-12-20T22:45:57.160Z,99889.30
2022-12-20T22:51:00.498Z,99871.77
2022-12-20T22:56:04.935Z,99855.39
2022-12-20T23:01:10.739Z,99840.02
2022-12-20T23:06:16.682Z,99838.80
2022-12-20T23:11:25.515Z,99838.63
2022-12-20T23:16:28.561Z,99835.48
2022-12-20T23:21:34.356Z,99839.43
2022-12-20T23:26:38.636Z,99834.63
2022-12-20T23:31:41.617Z,99816.68
2022-12-20T23:36:44.381Z,99797.15
2022-12-20T23:41:47.016Z,99786.11
2022-12-20T23:46:49.702Z,99767.16
2022-12-20T23:51:52.444Z,99766.98
2022-12-20T23:56:55.061Z,99769.91
